KQA654 HKJK-HKKI
Flight info
| Callsign | KQA654 |
|---|---|
| Flight time | 0h 33m |
| Altitude | 22000 |
| Route | APKUB1A APKUB DCT NEVON NEVON1B |
| Aircraft | B738/M-SDE2E3FGHIRWXY/LB1 |
Departure
| Time | 2026-04-26 15:30 |
|---|---|
| Airport | Jomo Kenyatta International Airport (HKJK) |
Arrival
| Time | 2026-04-26 16:04 |
|---|---|
| Airport | Kisumu International Airport (HKKI) |
| Time | Latitude | Longitude | Altitude | Speed | Heading |
|---|---|---|---|---|---|
| 2026-04-26 15:07 | -1.33239 | 36.92187 | 5314 ft | 0 kts | 243° |
| 2026-04-26 15:17 | -1.33235 | 36.92194 | 5313 ft | 2 kts | 243° |
| 2026-04-26 15:17 | -1.33230 | 36.92204 | 5313 ft | 2 kts | 243° |
| 2026-04-26 15:17 | -1.33221 | 36.92222 | 5312 ft | 2 kts | 243° |
| 2026-04-26 15:17 | -1.33214 | 36.92236 | 5312 ft | 2 kts | 244° |
| 2026-04-26 15:18 | -1.33212 | 36.92251 | 5312 ft | 2 kts | 282° |
| 2026-04-26 15:18 | -1.33218 | 36.92265 | 5311 ft | 2 kts | 311° |
| 2026-04-26 15:18 | -1.33231 | 36.92274 | 5311 ft | 2 kts | 340° |
| 2026-04-26 15:18 | -1.33238 | 36.92276 | 5311 ft | 1 kts | 356° |
| 2026-04-26 15:19 | -1.33242 | 36.92277 | 5311 ft | 0 kts | 352° |
| 2026-04-26 15:22 | -1.33231 | 36.92274 | 5311 ft | 6 kts | 340° |
| 2026-04-26 15:23 | -1.33143 | 36.92234 | 5313 ft | 17 kts | 342° |
| 2026-04-26 15:23 | -1.33014 | 36.92218 | 5316 ft | 12 kts | 12° |
| 2026-04-26 15:23 | -1.32992 | 36.92222 | 5317 ft | 0 kts | 12° |
| 2026-04-26 15:24 | -1.32981 | 36.92225 | 5316 ft | 5 kts | 16° |
| 2026-04-26 15:24 | -1.32906 | 36.92251 | 5316 ft | 13 kts | 19° |
| 2026-04-26 15:24 | -1.32872 | 36.92253 | 5317 ft | 5 kts | 353° |
| 2026-04-26 15:24 | -1.32812 | 36.92219 | 5318 ft | 14 kts | 319° |
| 2026-04-26 15:25 | -1.32818 | 36.92125 | 5318 ft | 16 kts | 231° |
| 2026-04-26 15:25 | -1.32870 | 36.92055 | 5320 ft | 17 kts | 234° |
| 2026-04-26 15:25 | -1.32940 | 36.91952 | 5322 ft | 17 kts | 230° |
| 2026-04-26 15:25 | -1.33001 | 36.91869 | 5323 ft | 13 kts | 243° |
| 2026-04-26 15:26 | -1.32979 | 36.91806 | 5325 ft | 2 kts | 321° |
| 2026-04-26 15:26 | -1.32935 | 36.91773 | 5325 ft | 13 kts | 323° |
| 2026-04-26 15:26 | -1.32861 | 36.91721 | 5326 ft | 7 kts | 324° |
| 2026-04-26 15:26 | -1.32844 | 36.91708 | 5327 ft | 0 kts | 324° |
| 2026-04-26 15:27 | -1.32842 | 36.91708 | 5327 ft | 1 kts | 324° |
| 2026-04-26 15:28 | -1.32820 | 36.91691 | 5327 ft | 6 kts | 324° |
| 2026-04-26 15:28 | -1.32762 | 36.91663 | 5326 ft | 11 kts | 0° |
| 2026-04-26 15:28 | -1.32729 | 36.91686 | 5325 ft | 0 kts | 58° |
| 2026-04-26 15:28 | -1.32722 | 36.91694 | 5325 ft | 6 kts | 45° |
| 2026-04-26 15:29 | -1.32720 | 36.91696 | 5325 ft | 0 kts | 44° |
| 2026-04-26 15:29 | -1.32374 | 36.92160 | 5318 ft | 102 kts | 51° |
| 2026-04-26 15:30 | -1.31123 | 36.93900 | 5345 ft | 188 kts | 53° |
| 2026-04-26 15:30 | -1.30344 | 36.94972 | 5763 ft | 195 kts | 53° |
| 2026-04-26 15:30 | -1.29484 | 36.96160 | 6127 ft | 209 kts | 54° |
| 2026-04-26 15:31 | -1.28602 | 36.97392 | 6591 ft | 217 kts | 54° |
| 2026-04-26 15:31 | -1.26816 | 36.99902 | 7843 ft | 219 kts | 47° |
| 2026-04-26 15:31 | -1.25409 | 37.00520 | 8080 ft | 237 kts | 354° |
| 2026-04-26 15:32 | -1.23006 | 36.98907 | 8280 ft | 274 kts | 303° |
| 2026-04-26 15:32 | -1.22258 | 36.96497 | 8944 ft | 273 kts | 279° |
| 2026-04-26 15:32 | -1.22003 | 36.94574 | 9539 ft | 278 kts | 278° |
| 2026-04-26 15:33 | -1.21778 | 36.92596 | 10119 ft | 283 kts | 277° |
| 2026-04-26 15:33 | -1.21577 | 36.90587 | 10690 ft | 287 kts | 276° |
| 2026-04-26 15:33 | -1.21378 | 36.88540 | 11293 ft | 296 kts | 279° |
| 2026-04-26 15:33 | -1.20927 | 36.86406 | 11707 ft | 315 kts | 284° |
| 2026-04-26 15:34 | -1.20453 | 36.84182 | 12264 ft | 327 kts | 281° |
| 2026-04-26 15:34 | -1.20067 | 36.81885 | 12979 ft | 333 kts | 280° |
| 2026-04-26 15:34 | -1.19687 | 36.79539 | 13726 ft | 337 kts | 280° |
| 2026-04-26 15:34 | -1.19300 | 36.77147 | 14478 ft | 341 kts | 281° |
| 2026-04-26 15:35 | -1.18925 | 36.74777 | 15217 ft | 344 kts | 281° |
| 2026-04-26 15:35 | -1.18543 | 36.72338 | 15951 ft | 347 kts | 281° |
| 2026-04-26 15:35 | -1.18163 | 36.69904 | 16665 ft | 350 kts | 281° |
| 2026-04-26 15:35 | -1.17783 | 36.67460 | 17357 ft | 353 kts | 281° |
| 2026-04-26 15:36 | -1.17394 | 36.64959 | 18044 ft | 355 kts | 281° |
| 2026-04-26 15:36 | -1.17006 | 36.62458 | 18712 ft | 357 kts | 281° |
| 2026-04-26 15:36 | -1.16618 | 36.59964 | 19365 ft | 360 kts | 281° |
| 2026-04-26 15:36 | -1.16226 | 36.57434 | 20001 ft | 362 kts | 281° |
| 2026-04-26 15:37 | -1.15833 | 36.54902 | 20624 ft | 364 kts | 281° |
| 2026-04-26 15:37 | -1.15432 | 36.52323 | 21228 ft | 366 kts | 281° |
| 2026-04-26 15:37 | -1.15036 | 36.49766 | 21811 ft | 367 kts | 281° |
| 2026-04-26 15:37 | -1.14631 | 36.47160 | 22032 ft | 373 kts | 281° |
| 2026-04-26 15:38 | -1.14223 | 36.44536 | 22045 ft | 373 kts | 281° |
| 2026-04-26 15:38 | -1.13824 | 36.41956 | 22047 ft | 369 kts | 281° |
| 2026-04-26 15:38 | -1.13422 | 36.39363 | 22048 ft | 367 kts | 281° |
| 2026-04-26 15:38 | -1.13020 | 36.36775 | 22048 ft | 368 kts | 281° |
| 2026-04-26 15:39 | -1.12617 | 36.34177 | 22047 ft | 368 kts | 281° |
| 2026-04-26 15:39 | -1.12215 | 36.31591 | 22047 ft | 368 kts | 281° |
| 2026-04-26 15:39 | -1.11934 | 36.29784 | 22047 ft | 368 kts | 281° |
| 2026-04-26 15:39 | -1.11657 | 36.27998 | 22047 ft | 368 kts | 281° |
| 2026-04-26 15:40 | -1.11527 | 36.27162 | 22047 ft | 368 kts | 281° |
| 2026-04-26 15:40 | -1.10358 | 36.19633 | 22047 ft | 368 kts | 281° |
| 2026-04-26 15:40 | -1.09938 | 36.17205 | 22046 ft | 367 kts | 285° |
| 2026-04-26 15:41 | -1.09219 | 36.14836 | 22108 ft | 362 kts | 295° |
| 2026-04-26 15:41 | -1.08087 | 36.12604 | 22176 ft | 362 kts | 304° |
| 2026-04-26 15:41 | -1.06569 | 36.10469 | 22185 ft | 361 kts | 308° |
| 2026-04-26 15:41 | -1.05058 | 36.08419 | 22182 ft | 362 kts | 307° |
| 2026-04-26 15:42 | -1.03612 | 36.06396 | 22182 ft | 361 kts | 307° |
| 2026-04-26 15:42 | -1.02165 | 36.04375 | 22182 ft | 361 kts | 307° |
| 2026-04-26 15:42 | -1.00682 | 36.02323 | 22182 ft | 361 kts | 307° |
| 2026-04-26 15:42 | -0.99178 | 36.00246 | 22182 ft | 361 kts | 307° |
| 2026-04-26 15:43 | -0.97763 | 35.98293 | 22182 ft | 361 kts | 307° |
| 2026-04-26 15:43 | -0.96287 | 35.96256 | 22182 ft | 361 kts | 307° |
| 2026-04-26 15:43 | -0.93269 | 35.92096 | 22174 ft | 362 kts | 307° |
| 2026-04-26 15:44 | -0.91759 | 35.90016 | 21940 ft | 365 kts | 307° |
| 2026-04-26 15:44 | -0.88736 | 35.85851 | 21165 ft | 358 kts | 307° |
| 2026-04-26 15:44 | -0.87242 | 35.83795 | 20780 ft | 355 kts | 307° |
| 2026-04-26 15:45 | -0.84294 | 35.79736 | 20013 ft | 352 kts | 308° |
| 2026-04-26 15:45 | -0.82829 | 35.77718 | 19631 ft | 351 kts | 307° |
| 2026-04-26 15:46 | -0.79892 | 35.73675 | 18859 ft | 349 kts | 307° |
| 2026-04-26 15:46 | -0.78446 | 35.71685 | 18476 ft | 347 kts | 307° |
| 2026-04-26 15:46 | -0.77000 | 35.69693 | 18091 ft | 345 kts | 307° |
| 2026-04-26 15:46 | -0.76044 | 35.68378 | 17836 ft | 344 kts | 307° |
| 2026-04-26 15:47 | -0.74132 | 35.65745 | 17324 ft | 342 kts | 307° |
| 2026-04-26 15:47 | -0.71289 | 35.61832 | 16556 ft | 339 kts | 307° |
| 2026-04-26 15:47 | -0.69879 | 35.59891 | 16203 ft | 337 kts | 307° |
| 2026-04-26 15:48 | -0.68479 | 35.57963 | 15924 ft | 335 kts | 307° |
| 2026-04-26 15:48 | -0.67077 | 35.56034 | 15644 ft | 335 kts | 307° |
| 2026-04-26 15:48 | -0.65672 | 35.54100 | 15361 ft | 335 kts | 307° |
| 2026-04-26 15:48 | -0.64281 | 35.52186 | 15080 ft | 334 kts | 307° |
| 2026-04-26 15:49 | -0.62879 | 35.50256 | 14797 ft | 333 kts | 307° |
| 2026-04-26 15:49 | -0.61503 | 35.48362 | 14517 ft | 331 kts | 307° |
| 2026-04-26 15:49 | -0.60116 | 35.46452 | 14234 ft | 330 kts | 307° |
| 2026-04-26 15:49 | -0.58731 | 35.44546 | 13950 ft | 329 kts | 307° |
| 2026-04-26 15:50 | -0.57373 | 35.42677 | 13672 ft | 328 kts | 307° |
| 2026-04-26 15:50 | -0.56005 | 35.40794 | 13390 ft | 327 kts | 307° |
| 2026-04-26 15:50 | -0.54565 | 35.38990 | 13114 ft | 324 kts | 317° |
| 2026-04-26 15:50 | -0.52797 | 35.37545 | 12865 ft | 319 kts | 324° |
| 2026-04-26 15:51 | -0.51006 | 35.36153 | 12607 ft | 317 kts | 322° |
| 2026-04-26 15:51 | -0.49272 | 35.34702 | 12350 ft | 316 kts | 321° |
| 2026-04-26 15:51 | -0.47554 | 35.33252 | 12093 ft | 315 kts | 321° |
| 2026-04-26 15:51 | -0.45858 | 35.31820 | 11839 ft | 315 kts | 321° |
| 2026-04-26 15:52 | -0.44150 | 35.30369 | 11582 ft | 314 kts | 320° |
| 2026-04-26 15:52 | -0.42458 | 35.28928 | 11326 ft | 312 kts | 320° |
| 2026-04-26 15:52 | -0.40774 | 35.27493 | 11070 ft | 311 kts | 320° |
| 2026-04-26 15:52 | -0.39657 | 35.26541 | 10900 ft | 310 kts | 320° |
| 2026-04-26 15:53 | -0.37410 | 35.24623 | 10555 ft | 308 kts | 320° |
| 2026-04-26 15:53 | -0.35762 | 35.23217 | 10302 ft | 307 kts | 320° |
| 2026-04-26 15:53 | -0.34091 | 35.21791 | 10040 ft | 303 kts | 320° |
| 2026-04-26 15:53 | -0.32480 | 35.20416 | 9782 ft | 294 kts | 320° |
| 2026-04-26 15:54 | -0.30907 | 35.19073 | 9524 ft | 286 kts | 320° |
| 2026-04-26 15:54 | -0.29375 | 35.17765 | 9267 ft | 279 kts | 320° |
| 2026-04-26 15:54 | -0.27880 | 35.16489 | 9013 ft | 275 kts | 320° |
| 2026-04-26 15:54 | -0.26407 | 35.15232 | 8761 ft | 274 kts | 320° |
| 2026-04-26 15:55 | -0.24907 | 35.13952 | 8503 ft | 274 kts | 320° |
| 2026-04-26 15:55 | -0.23427 | 35.12688 | 8247 ft | 274 kts | 320° |
| 2026-04-26 15:55 | -0.21961 | 35.11436 | 8135 ft | 262 kts | 320° |
| 2026-04-26 15:55 | -0.20555 | 35.10236 | 8150 ft | 268 kts | 320° |
| 2026-04-26 15:56 | -0.19094 | 35.08990 | 8143 ft | 266 kts | 320° |
| 2026-04-26 15:56 | -0.17672 | 35.07776 | 8060 ft | 266 kts | 320° |
| 2026-04-26 15:56 | -0.16209 | 35.06527 | 8001 ft | 268 kts | 320° |
| 2026-04-26 15:56 | -0.14742 | 35.05275 | 8013 ft | 272 kts | 320° |
| 2026-04-26 15:57 | -0.13269 | 35.04018 | 8014 ft | 273 kts | 321° |
| 2026-04-26 15:57 | -0.11693 | 35.02918 | 8016 ft | 272 kts | 330° |
| 2026-04-26 15:57 | -0.10003 | 35.01939 | 8015 ft | 272 kts | 330° |
| 2026-04-26 15:57 | -0.08894 | 35.01277 | 8014 ft | 272 kts | 329° |
| 2026-04-26 15:58 | -0.06684 | 34.99952 | 8015 ft | 272 kts | 330° |
| 2026-04-26 15:58 | -0.05016 | 34.98956 | 8015 ft | 272 kts | 330° |
| 2026-04-26 15:58 | -0.03372 | 34.97974 | 8014 ft | 272 kts | 330° |
| 2026-04-26 15:58 | -0.01952 | 34.97125 | 8012 ft | 265 kts | 330° |
| 2026-04-26 15:59 | -0.00922 | 34.96510 | 8013 ft | 258 kts | 330° |
| 2026-04-26 15:59 | 0.00637 | 34.95578 | 8014 ft | 249 kts | 330° |
| 2026-04-26 15:59 | 0.01984 | 34.94496 | 8012 ft | 241 kts | 306° |
| 2026-04-26 15:59 | 0.02542 | 34.92889 | 8020 ft | 244 kts | 269° |
| 2026-04-26 16:00 | 0.02112 | 34.91227 | 8132 ft | 239 kts | 244° |
| 2026-04-26 16:00 | 0.01268 | 34.89794 | 8173 ft | 228 kts | 239° |
| 2026-04-26 16:00 | 0.00471 | 34.88461 | 8089 ft | 210 kts | 240° |
| 2026-04-26 16:00 | -0.00263 | 34.87216 | 8010 ft | 203 kts | 240° |
| 2026-04-26 16:01 | -0.01014 | 34.85969 | 7926 ft | 202 kts | 236° |
| 2026-04-26 16:01 | -0.01879 | 34.84864 | 7798 ft | 199 kts | 230° |
| 2026-04-26 16:01 | -0.02750 | 34.83752 | 7362 ft | 196 kts | 236° |
| 2026-04-26 16:01 | -0.03442 | 34.82589 | 7030 ft | 184 kts | 243° |
| 2026-04-26 16:02 | -0.04022 | 34.81418 | 6656 ft | 184 kts | 245° |
| 2026-04-26 16:02 | -0.04591 | 34.80310 | 6031 ft | 181 kts | 243° |
| 2026-04-26 16:02 | -0.05221 | 34.79191 | 5277 ft | 184 kts | 243° |
| 2026-04-26 16:02 | -0.05617 | 34.78431 | 4851 ft | 178 kts | 242° |
| 2026-04-26 16:03 | -0.06395 | 34.77027 | 4436 ft | 166 kts | 244° |
| 2026-04-26 16:03 | -0.06933 | 34.75963 | 4300 ft | 166 kts | 240° |
| 2026-04-26 16:03 | -0.07514 | 34.74924 | 4198 ft | 170 kts | 243° |
| 2026-04-26 16:03 | -0.08079 | 34.73853 | 3908 ft | 167 kts | 243° |
| 2026-04-26 16:04 | -0.08626 | 34.72839 | 3800 ft | 149 kts | 244° |
| 2026-04-26 16:04 | -0.09017 | 34.72092 | 3769 ft | 86 kts | 242° |
| 2026-04-26 16:04 | -0.09204 | 34.71743 | 3759 ft | 25 kts | 242° |
| 2026-04-26 16:04 | -0.09254 | 34.71646 | 3759 ft | 4 kts | 243° |
| 2026-04-26 16:05 | -0.09267 | 34.71621 | 3758 ft | 10 kts | 245° |
| 2026-04-26 16:05 | -0.09309 | 34.71522 | 3756 ft | 13 kts | 243° |
| 2026-04-26 16:05 | -0.09329 | 34.71429 | 3756 ft | 14 kts | 270° |
| 2026-04-26 16:05 | -0.09376 | 34.71411 | 3756 ft | 12 kts | 112° |
| 2026-04-26 16:06 | -0.09339 | 34.71503 | 3756 ft | 16 kts | 60° |
| 2026-04-26 16:06 | -0.09287 | 34.71598 | 3757 ft | 13 kts | 62° |
| 2026-04-26 16:06 | -0.09261 | 34.71647 | 3759 ft | 0 kts | 62° |
| 2026-04-26 16:06 | -0.09249 | 34.71669 | 3759 ft | 6 kts | 62° |
| 2026-04-26 16:07 | -0.09217 | 34.71728 | 3759 ft | 11 kts | 61° |
| 2026-04-26 16:07 | -0.09169 | 34.71817 | 3759 ft | 16 kts | 62° |
| 2026-04-26 16:07 | -0.09115 | 34.71919 | 3763 ft | 12 kts | 61° |
| 2026-04-26 16:07 | -0.09069 | 34.71959 | 3765 ft | 11 kts | 2° |
| 2026-04-26 16:08 | -0.08994 | 34.71932 | 3764 ft | 1 kts | 333° |
| 2026-04-26 16:08 | -0.08978 | 34.71925 | 3765 ft | 5 kts | 337° |
| 2026-04-26 16:08 | -0.08922 | 34.71961 | 3767 ft | 9 kts | 62° |
| 2026-04-26 16:08 | -0.08883 | 34.72033 | 3769 ft | 13 kts | 62° |
| 2026-04-26 16:09 | -0.08865 | 34.72065 | 3771 ft | 1 kts | 62° |
| 2026-04-26 16:09 | -0.08854 | 34.72087 | 3772 ft | 5 kts | 62° |
| 2026-04-26 16:09 | -0.08830 | 34.72132 | 3774 ft | 8 kts | 62° |
| 2026-04-26 16:09 | -0.08793 | 34.72198 | 3777 ft | 12 kts | 61° |
| 2026-04-26 16:10 | -0.08745 | 34.72286 | 3782 ft | 15 kts | 60° |
| 2026-04-26 16:10 | -0.08688 | 34.72393 | 3787 ft | 18 kts | 62° |
| 2026-04-26 16:10 | -0.08621 | 34.72517 | 3793 ft | 21 kts | 63° |
| 2026-04-26 16:10 | -0.08543 | 34.72662 | 3796 ft | 25 kts | 61° |
| 2026-04-26 16:11 | -0.08468 | 34.72805 | 3803 ft | 19 kts | 62° |
| 2026-04-26 16:11 | -0.08419 | 34.72883 | 3805 ft | 10 kts | 36° |
| 2026-04-26 16:11 | -0.08377 | 34.72887 | 3806 ft | 3 kts | 11° |
| 2026-04-26 16:11 | -0.08352 | 34.72915 | 3807 ft | 7 kts | 60° |
| 2026-04-26 16:12 | -0.08343 | 34.72932 | 3808 ft | 1 kts | 60° |
| 2026-04-26 16:12 | -0.08336 | 34.72944 | 3808 ft | 0 kts | 60° |